sensor_id;sensor_type;location;lat;lon;timestamp;temperature;humidity
7576;DHT22;3829;50.798;4.358;2023-02-22T00:00:36;5.10;99.90
7576;DHT22;3829;50.798;4.358;2023-02-22T00:03:19;5.10;99.90
7576;DHT22;3829;50.798;4.358;2023-02-22T00:05:59;5.10;99.90
7576;DHT22;3829;50.798;4.358;2023-02-22T00:08:30;5.10;99.90
7576;DHT22;3829;50.798;4.358;2023-02-22T00:11:00;5.00;99.90
7576;DHT22;3829;50.798;4.358;2023-02-22T00:13:27;5.00;99.90
7576;DHT22;3829;50.798;4.358;2023-02-22T00:15:54;5.00;99.90
7576;DHT22;3829;50.798;4.358;2023-02-22T00:18:20;5.00;99.90
7576;DHT22;3829;50.798;4.358;2023-02-22T00:20:46;5.00;99.90
7576;DHT22;3829;50.798;4.358;2023-02-22T00:23:17;5.00;99.90
7576;DHT22;3829;50.798;4.358;2023-02-22T00:25:44;4.90;99.90
7576;DHT22;3829;50.798;4.358;2023-02-22T00:28:11;4.90;99.90
7576;DHT22;3829;50.798;4.358;2023-02-22T00:30:36;4.90;99.90
7576;DHT22;3829;50.798;4.358;2023-02-22T00:33:02;4.80;99.90
7576;DHT22;3829;50.798;4.358;2023-02-22T00:35:29;4.80;99.90
7576;DHT22;3829;50.798;4.358;2023-02-22T00:37:57;4.70;99.90
7576;DHT22;3829;50.798;4.358;2023-02-22T00:40:26;4.80;99.90
7576;DHT22;3829;50.798;4.358;2023-02-22T00:42:55;4.90;99.90
7576;DHT22;3829;50.798;4.358;2023-02-22T00:45:22;4.80;99.90
7576;DHT22;3829;50.798;4.358;2023-02-22T00:47:48;4.70;99.90
7576;DHT22;3829;50.798;4.358;2023-02-22T00:50:16;4.60;99.90
7576;DHT22;3829;50.798;4.358;2023-02-22T00:52:41;4.60;99.90
7576;DHT22;3829;50.798;4.358;2023-02-22T00:55:09;4.60;99.90
7576;DHT22;3829;50.798;4.358;2023-02-22T00:57:35;4.50;99.90
7576;DHT22;3829;50.798;4.358;2023-02-22T01:00:06;4.50;99.90
7576;DHT22;3829;50.798;4.358;2023-02-22T01:02:41;4.50;99.90
7576;DHT22;3829;50.798;4.358;2023-02-22T01:05:09;4.40;99.90
7576;DHT22;3829;50.798;4.358;2023-02-22T01:07:37;4.40;99.90
7576;DHT22;3829;50.798;4.358;2023-02-22T01:10:04;4.40;99.90
7576;DHT22;3829;50.798;4.358;2023-02-22T01:12:29;4.40;99.90
7576;DHT22;3829;50.798;4.358;2023-02-22T01:14:55;4.30;99.90
7576;DHT22;3829;50.798;4.358;2023-02-22T01:17:23;4.40;99.90
7576;DHT22;3829;50.798;4.358;2023-02-22T01:19:50;4.40;99.90
7576;DHT22;3829;50.798;4.358;2023-02-22T01:22:16;4.30;99.90
7576;DHT22;3829;50.798;4.358;2023-02-22T01:24:41;4.40;99.90
7576;DHT22;3829;50.798;4.358;2023-02-22T01:27:07;4.40;99.90
7576;DHT22;3829;50.798;4.358;2023-02-22T01:29:32;4.40;99.90
7576;DHT22;3829;50.798;4.358;2023-02-22T01:31:58;4.40;99.90
7576;DHT22;3829;50.798;4.358;2023-02-22T01:34:25;4.50;99.90
7576;DHT22;3829;50.798;4.358;2023-02-22T01:36:51;4.50;99.90
7576;DHT22;3829;50.798;4.358;2023-02-22T01:39:17;4.60;99.90
7576;DHT22;3829;50.798;4.358;2023-02-22T01:41:44;4.60;99.90
7576;DHT22;3829;50.798;4.358;2023-02-22T01:44:32;4.60;99.90
7576;DHT22;3829;50.798;4.358;2023-02-22T01:47:00;4.60;99.90
7576;DHT22;3829;50.798;4.358;2023-02-22T01:49:36;4.60;99.90
7576;DHT22;3829;50.798;4.358;2023-02-22T01:52:06;4.70;99.90
7576;DHT22;3829;50.798;4.358;2023-02-22T01:54:54;4.60;99.90
7576;DHT22;3829;50.798;4.358;2023-02-22T01:57:25;4.60;99.90
7576;DHT22;3829;50.798;4.358;2023-02-22T01:59:58;4.70;99.90
7576;DHT22;3829;50.798;4.358;2023-02-22T02:02:25;4.70;99.90
7576;DHT22;3829;50.798;4.358;2023-02-22T02:04:53;4.70;99.90
7576;DHT22;3829;50.798;4.358;2023-02-22T02:07:21;4.80;99.90
7576;DHT22;3829;50.798;4.358;2023-02-22T02:09:58;4.80;99.90
7576;DHT22;3829;50.798;4.358;2023-02-22T02:12:25;4.80;99.90
7576;DHT22;3829;50.798;4.358;2023-02-22T02:14:52;4.70;99.90
7576;DHT22;3829;50.798;4.358;2023-02-22T02:17:20;4.70;99.90
7576;DHT22;3829;50.798;4.358;2023-02-22T02:19:58;4.70;99.90
7576;DHT22;3829;50.798;4.358;2023-02-22T02:33:53;4.60;99.90
7576;DHT22;3829;50.798;4.358;2023-02-22T02:36:07;4.60;99.90
7576;DHT22;3829;50.798;4.358;2023-02-22T02:39:04;4.60;99.90
7576;DHT22;3829;50.798;4.358;2023-02-22T02:41:31;4.50;99.90
7576;DHT22;3829;50.798;4.358;2023-02-22T02:46:46;4.40;99.90
7576;DHT22;3829;50.798;4.358;2023-02-22T02:49:18;4.40;99.90
7576;DHT22;3829;50.798;4.358;2023-02-22T02:51:51;4.40;99.90
7576;DHT22;3829;50.798;4.358;2023-02-22T02:54:17;4.40;99.90
7576;DHT22;3829;50.798;4.358;2023-02-22T02:56:44;4.40;99.90
7576;DHT22;3829;50.798;4.358;2023-02-22T03:21:00;4.40;99.90
7576;DHT22;3829;50.798;4.358;2023-02-22T03:24:00;4.40;99.90
7576;DHT22;3829;50.798;4.358;2023-02-22T03:27:03;4.40;99.90
7576;DHT22;3829;50.798;4.358;2023-02-22T03:29:39;4.40;99.90
7576;DHT22;3829;50.798;4.358;2023-02-22T03:32:10;4.40;99.90
7576;DHT22;3829;50.798;4.358;2023-02-22T03:35:10;4.40;99.90
7576;DHT22;3829;50.798;4.358;2023-02-22T03:37:42;4.40;99.90
7576;DHT22;3829;50.798;4.358;2023-02-22T03:40:13;4.50;99.90
7576;DHT22;3829;50.798;4.358;2023-02-22T03:42:50;4.50;99.90
7576;DHT22;3829;50.798;4.358;2023-02-22T03:45:20;4.60;99.90
7576;DHT22;3829;50.798;4.358;2023-02-22T03:47:57;4.50;99.90
7576;DHT22;3829;50.798;4.358;2023-02-22T03:50:28;4.60;99.90
7576;DHT22;3829;50.798;4.358;2023-02-22T03:52:55;4.60;99.90
7576;DHT22;3829;50.798;4.358;2023-02-22T03:55:23;4.50;99.90
7576;DHT22;3829;50.798;4.358;2023-02-22T03:57:51;4.50;99.90
7576;DHT22;3829;50.798;4.358;2023-02-22T04:00:21;4.50;99.90
7576;DHT22;3829;50.798;4.358;2023-02-22T04:02:48;4.50;99.90
7576;DHT22;3829;50.798;4.358;2023-02-22T04:05:14;4.50;99.90
7576;DHT22;3829;50.798;4.358;2023-02-22T04:07:40;4.50;99.90
7576;DHT22;3829;50.798;4.358;2023-02-22T04:10:07;4.50;99.90
7576;DHT22;3829;50.798;4.358;2023-02-22T04:12:34;4.50;99.90
7576;DHT22;3829;50.798;4.358;2023-02-22T04:15:00;4.50;99.90
7576;DHT22;3829;50.798;4.358;2023-02-22T04:17:26;4.50;99.90
7576;DHT22;3829;50.798;4.358;2023-02-22T04:19:51;4.40;99.90
7576;DHT22;3829;50.798;4.358;2023-02-22T04:22:17;4.50;99.90
7576;DHT22;3829;50.798;4.358;2023-02-22T04:24:42;4.50;99.90
7576;DHT22;3829;50.798;4.358;2023-02-22T04:27:09;4.40;99.90
7576;DHT22;3829;50.798;4.358;2023-02-22T04:29:35;4.40;99.90
7576;DHT22;3829;50.798;4.358;2023-02-22T04:32:01;4.50;99.90
7576;DHT22;3829;50.798;4.358;2023-02-22T04:34:26;4.50;99.90
7576;DHT22;3829;50.798;4.358;2023-02-22T04:36:52;4.60;99.90
7576;DHT22;3829;50.798;4.358;2023-02-22T04:39:17;4.60;99.90
7576;DHT22;3829;50.798;4.358;2023-02-22T04:41:43;4.60;99.90
7576;DHT22;3829;50.798;4.358;2023-02-22T04:44:09;4.60;99.90
7576;DHT22;3829;50.798;4.358;2023-02-22T04:46:34;4.70;99.90
7576;DHT22;3829;50.798;4.358;2023-02-22T04:49:00;4.70;99.90
7576;DHT22;3829;50.798;4.358;2023-02-22T04:51:25;4.80;99.90
7576;DHT22;3829;50.798;4.358;2023-02-22T04:53:51;4.70;99.90
7576;DHT22;3829;50.798;4.358;2023-02-22T04:56:17;4.80;99.90
7576;DHT22;3829;50.798;4.358;2023-02-22T04:58:43;4.80;99.90
7576;DHT22;3829;50.798;4.358;2023-02-22T05:01:09;4.90;99.90
7576;DHT22;3829;50.798;4.358;2023-02-22T05:03:37;4.90;99.90
7576;DHT22;3829;50.798;4.358;2023-02-22T05:06:03;4.90;99.90
7576;DHT22;3829;50.798;4.358;2023-02-22T05:08:29;5.00;99.90
7576;DHT22;3829;50.798;4.358;2023-02-22T05:10:55;5.00;99.90
7576;DHT22;3829;50.798;4.358;2023-02-22T05:13:20;5.00;99.90
7576;DHT22;3829;50.798;4.358;2023-02-22T05:15:46;4.90;99.90
7576;DHT22;3829;50.798;4.358;2023-02-22T05:18:12;4.90;99.90
7576;DHT22;3829;50.798;4.358;2023-02-22T05:20:38;4.90;99.90
7576;DHT22;3829;50.798;4.358;2023-02-22T05:23:04;5.00;99.90
7576;DHT22;3829;50.798;4.358;2023-02-22T05:25:30;5.00;99.90
7576;DHT22;3829;50.798;4.358;2023-02-22T05:28:03;5.00;99.90
7576;DHT22;3829;50.798;4.358;2023-02-22T05:30:32;5.10;99.90
7576;DHT22;3829;50.798;4.358;2023-02-22T05:32:58;5.20;99.90
7576;DHT22;3829;50.798;4.358;2023-02-22T05:35:24;5.20;99.90
7576;DHT22;3829;50.798;4.358;2023-02-22T05:37:49;5.20;99.90
7576;DHT22;3829;50.798;4.358;2023-02-22T05:40:20;5.30;99.90
7576;DHT22;3829;50.798;4.358;2023-02-22T05:42:47;5.30;99.90
7576;DHT22;3829;50.798;4.358;2023-02-22T05:45:14;5.50;99.90
7576;DHT22;3829;50.798;4.358;2023-02-22T05:47:40;5.40;99.90
7576;DHT22;3829;50.798;4.358;2023-02-22T05:50:07;5.50;99.90
7576;DHT22;3829;50.798;4.358;2023-02-22T05:52:32;5.50;99.90
7576;DHT22;3829;50.798;4.358;2023-02-22T05:54:58;5.60;99.90
7576;DHT22;3829;50.798;4.358;2023-02-22T05:57:24;5.50;99.90
7576;DHT22;3829;50.798;4.358;2023-02-22T05:59:49;5.60;99.90
7576;DHT22;3829;50.798;4.358;2023-02-22T06:02:15;5.60;99.90
7576;DHT22;3829;50.798;4.358;2023-02-22T06:04:43;5.70;99.90
7576;DHT22;3829;50.798;4.358;2023-02-22T06:07:09;5.60;99.90
7576;DHT22;3829;50.798;4.358;2023-02-22T06:09:35;5.70;99.90
7576;DHT22;3829;50.798;4.358;2023-02-22T06:12:00;5.50;99.90
7576;DHT22;3829;50.798;4.358;2023-02-22T06:14:26;5.50;99.90
7576;DHT22;3829;50.798;4.358;2023-02-22T06:16:53;5.50;99.90
7576;DHT22;3829;50.798;4.358;2023-02-22T06:19:19;5.50;99.90
7576;DHT22;3829;50.798;4.358;2023-02-22T06:21:55;5.40;99.90
7576;DHT22;3829;50.798;4.358;2023-02-22T06:24:22;5.50;99.90
7576;DHT22;3829;50.798;4.358;2023-02-22T06:27:00;5.50;99.90
7576;DHT22;3829;50.798;4.358;2023-02-22T06:29:28;5.50;99.90
7576;DHT22;3829;50.798;4.358;2023-02-22T06:31:54;5.50;99.90
7576;DHT22;3829;50.798;4.358;2023-02-22T06:34:20;5.50;99.90
7576;DHT22;3829;50.798;4.358;2023-02-22T06:36:49;5.60;99.90
7576;DHT22;3829;50.798;4.358;2023-02-22T06:39:15;5.70;99.90
7576;DHT22;3829;50.798;4.358;2023-02-22T06:41:42;5.80;99.90
7576;DHT22;3829;50.798;4.358;2023-02-22T06:44:09;5.90;99.90
7576;DHT22;3829;50.798;4.358;2023-02-22T06:46:35;6.00;99.90
7576;DHT22;3829;50.798;4.358;2023-02-22T06:49:01;6.00;99.90
7576;DHT22;3829;50.798;4.358;2023-02-22T06:51:28;6.10;99.90
7576;DHT22;3829;50.798;4.358;2023-02-22T06:53:54;6.10;99.90
7576;DHT22;3829;50.798;4.358;2023-02-22T06:56:19;6.10;99.90
7576;DHT22;3829;50.798;4.358;2023-02-22T06:58:45;6.20;99.90
7576;DHT22;3829;50.798;4.358;2023-02-22T07:01:11;6.10;99.90
7576;DHT22;3829;50.798;4.358;2023-02-22T07:03:37;6.10;99.90
7576;DHT22;3829;50.798;4.358;2023-02-22T07:06:03;6.20;99.90
7576;DHT22;3829;50.798;4.358;2023-02-22T07:08:29;6.30;99.90
7576;DHT22;3829;50.798;4.358;2023-02-22T07:10:55;6.40;99.90
7576;DHT22;3829;50.798;4.358;2023-02-22T07:13:20;6.30;99.90
7576;DHT22;3829;50.798;4.358;2023-02-22T07:15:46;6.30;99.90
7576;DHT22;3829;50.798;4.358;2023-02-22T07:18:12;6.20;99.90
7576;DHT22;3829;50.798;4.358;2023-02-22T07:20:38;6.20;99.90
7576;DHT22;3829;50.798;4.358;2023-02-22T07:23:05;6.30;99.90
7576;DHT22;3829;50.798;4.358;2023-02-22T07:25:30;6.40;99.90
7576;DHT22;3829;50.798;4.358;2023-02-22T07:27:57;6.50;99.90
7576;DHT22;3829;50.798;4.358;2023-02-22T07:30:28;6.60;99.90
7576;DHT22;3829;50.798;4.358;2023-02-22T07:32:59;6.70;99.90
7576;DHT22;3829;50.798;4.358;2023-02-22T07:35:31;6.90;99.90
7576;DHT22;3829;50.798;4.358;2023-02-22T07:37:57;7.10;99.90
7576;DHT22;3829;50.798;4.358;2023-02-22T07:40:25;7.30;99.90
7576;DHT22;3829;50.798;4.358;2023-02-22T07:42:52;7.40;99.90
7576;DHT22;3829;50.798;4.358;2023-02-22T07:45:18;7.40;99.90
7576;DHT22;3829;50.798;4.358;2023-02-22T07:47:47;7.50;99.90
7576;DHT22;3829;50.798;4.358;2023-02-22T07:50:14;7.60;99.90
7576;DHT22;3829;50.798;4.358;2023-02-22T07:52:47;7.80;99.90
7576;DHT22;3829;50.798;4.358;2023-02-22T07:55:18;8.00;99.90
7576;DHT22;3829;50.798;4.358;2023-02-22T07:57:45;8.10;99.90
7576;DHT22;3829;50.798;4.358;2023-02-22T08:00:13;8.20;99.90
7576;DHT22;3829;50.798;4.358;2023-02-22T08:02:40;8.20;99.90
7576;DHT22;3829;50.798;4.358;2023-02-22T08:05:06;8.40;99.90
7576;DHT22;3829;50.798;4.358;2023-02-22T08:07:32;8.50;99.90
7576;DHT22;3829;50.798;4.358;2023-02-22T08:09:58;8.60;99.90
7576;DHT22;3829;50.798;4.358;2023-02-22T08:12:23;8.50;99.90
7576;DHT22;3829;50.798;4.358;2023-02-22T08:14:49;8.70;99.90
7576;DHT22;3829;50.798;4.358;2023-02-22T08:17:15;8.60;99.90
7576;DHT22;3829;50.798;4.358;2023-02-22T08:19:40;8.70;99.90
7576;DHT22;3829;50.798;4.358;2023-02-22T08:22:06;8.60;99.90
7576;DHT22;3829;50.798;4.358;2023-02-22T08:24:31;8.70;99.90
7576;DHT22;3829;50.798;4.358;2023-02-22T08:26:57;8.80;99.90
7576;DHT22;3829;50.798;4.358;2023-02-22T08:29:23;8.90;99.90
7576;DHT22;3829;50.798;4.358;2023-02-22T08:31:52;9.10;99.90
7576;DHT22;3829;50.798;4.358;2023-02-22T08:34:18;9.20;99.90
7576;DHT22;3829;50.798;4.358;2023-02-22T08:36:44;9.30;99.90
7576;DHT22;3829;50.798;4.358;2023-02-22T08:39:10;9.30;99.90
7576;DHT22;3829;50.798;4.358;2023-02-22T08:41:35;9.30;99.90
7576;DHT22;3829;50.798;4.358;2023-02-22T08:44:01;9.40;99.90
7576;DHT22;3829;50.798;4.358;2023-02-22T08:46:27;9.50;99.90
7576;DHT22;3829;50.798;4.358;2023-02-22T08:48:53;9.60;99.90
7576;DHT22;3829;50.798;4.358;2023-02-22T08:51:19;9.70;99.90
7576;DHT22;3829;50.798;4.358;2023-02-22T08:53:45;9.90;99.90
7576;DHT22;3829;50.798;4.358;2023-02-22T08:56:11;9.90;99.90
7576;DHT22;3829;50.798;4.358;2023-02-22T08:58:36;10.00;99.90
7576;DHT22;3829;50.798;4.358;2023-02-22T09:01:02;10.10;99.90
7576;DHT22;3829;50.798;4.358;2023-02-22T09:03:28;9.90;99.90
7576;DHT22;3829;50.798;4.358;2023-02-22T09:05:54;9.60;99.90
7576;DHT22;3829;50.798;4.358;2023-02-22T09:08:20;9.30;99.90
7576;DHT22;3829;50.798;4.358;2023-02-22T09:10:48;9.20;99.90
7576;DHT22;3829;50.798;4.358;2023-02-22T09:13:14;9.10;99.90
7576;DHT22;3829;50.798;4.358;2023-02-22T09:15:39;9.20;99.90
7576;DHT22;3829;50.798;4.358;2023-02-22T09:18:07;9.20;99.90
7576;DHT22;3829;50.798;4.358;2023-02-22T09:20:33;9.30;99.90
7576;DHT22;3829;50.798;4.358;2023-02-22T09:23:03;9.40;99.90
7576;DHT22;3829;50.798;4.358;2023-02-22T09:25:29;9.50;99.90
7576;DHT22;3829;50.798;4.358;2023-02-22T09:27:55;9.50;99.90
7576;DHT22;3829;50.798;4.358;2023-02-22T09:30:26;9.60;99.90
7576;DHT22;3829;50.798;4.358;2023-02-22T09:32:59;9.60;99.90
7576;DHT22;3829;50.798;4.358;2023-02-22T09:35:25;9.60;99.90
7576;DHT22;3829;50.798;4.358;2023-02-22T09:37:55;9.60;99.90
7576;DHT22;3829;50.798;4.358;2023-02-22T09:40:22;9.60;99.90
7576;DHT22;3829;50.798;4.358;2023-02-22T09:51:54;10.00;99.90
7576;DHT22;3829;50.798;4.358;2023-02-22T09:57:01;10.30;99.90
7576;DHT22;3829;50.798;4.358;2023-02-22T09:59:37;10.30;99.90
7576;DHT22;3829;50.798;4.358;2023-02-22T10:02:28;10.40;99.90
7576;DHT22;3829;50.798;4.358;2023-02-22T10:05:21;10.60;99.90
7576;DHT22;3829;50.798;4.358;2023-02-22T10:08:03;10.70;99.90
7576;DHT22;3829;50.798;4.358;2023-02-22T10:10:35;10.90;99.90
7576;DHT22;3829;50.798;4.358;2023-02-22T10:24:53;11.60;99.90
7576;DHT22;3829;50.798;4.358;2023-02-22T10:32:42;11.60;99.90
7576;DHT22;3829;50.798;4.358;2023-02-22T10:35:27;11.80;99.90
7576;DHT22;3829;50.798;4.358;2023-02-22T10:37:58;11.90;99.90
7576;DHT22;3829;50.798;4.358;2023-02-22T10:40:26;12.10;99.90
7576;DHT22;3829;50.798;4.358;2023-02-22T10:43:03;12.10;99.90
7576;DHT22;3829;50.798;4.358;2023-02-22T10:45:31;12.10;99.90
7576;DHT22;3829;50.798;4.358;2023-02-22T10:47:59;12.20;99.90
7576;DHT22;3829;50.798;4.358;2023-02-22T10:50:28;12.10;99.90
7576;DHT22;3829;50.798;4.358;2023-02-22T10:52:55;12.10;99.90
7576;DHT22;3829;50.798;4.358;2023-02-22T10:55:20;12.10;99.90
7576;DHT22;3829;50.798;4.358;2023-02-22T10:57:49;12.30;99.90
7576;DHT22;3829;50.798;4.358;2023-02-22T11:00:19;12.30;99.90
7576;DHT22;3829;50.798;4.358;2023-02-22T11:02:56;12.20;99.90
7576;DHT22;3829;50.798;4.358;2023-02-22T11:05:46;12.10;99.90
7576;DHT22;3829;50.798;4.358;2023-02-22T11:10:50;12.10;99.90
7576;DHT22;3829;50.798;4.358;2023-02-22T11:13:18;12.10;99.90
7576;DHT22;3829;50.798;4.358;2023-02-22T11:15:51;12.00;99.90
7576;DHT22;3829;50.798;4.358;2023-02-22T11:18:32;12.00;99.90
7576;DHT22;3829;50.798;4.358;2023-02-22T11:21:03;12.00;99.90
7576;DHT22;3829;50.798;4.358;2023-02-22T11:23:29;11.90;99.90
7576;DHT22;3829;50.798;4.358;2023-02-22T11:26:17;12.00;99.90
7576;DHT22;3829;50.798;4.358;2023-02-22T11:28:49;11.90;99.90
7576;DHT22;3829;50.798;4.358;2023-02-22T11:31:29;11.80;99.90
7576;DHT22;3829;50.798;4.358;2023-02-22T11:33:57;11.90;99.90
7576;DHT22;3829;50.798;4.358;2023-02-22T11:36:41;12.00;99.90
7576;DHT22;3829;50.798;4.358;2023-02-22T11:39:30;12.30;99.90
7576;DHT22;3829;50.798;4.358;2023-02-22T11:42:23;12.70;99.90
7576;DHT22;3829;50.798;4.358;2023-02-22T11:45:26;12.80;99.90
7576;DHT22;3829;50.798;4.358;2023-02-22T11:47:57;12.70;99.90
7576;DHT22;3829;50.798;4.358;2023-02-22T11:50:37;12.60;99.90
7576;DHT22;3829;50.798;4.358;2023-02-22T11:56:21;12.60;99.90
7576;DHT22;3829;50.798;4.358;2023-02-22T11:58:51;12.80;99.90
7576;DHT22;3829;50.798;4.358;2023-02-22T12:01:33;12.90;99.90
7576;DHT22;3829;50.798;4.358;2023-02-22T12:06:50;13.00;99.90
7576;DHT22;3829;50.798;4.358;2023-02-22T12:12:09;13.40;99.90
7576;DHT22;3829;50.798;4.358;2023-02-22T12:17:35;13.00;99.90
7576;DHT22;3829;50.798;4.358;2023-02-22T12:23:04;13.10;99.90
7576;DHT22;3829;50.798;4.358;2023-02-22T12:25:35;13.30;99.90
7576;DHT22;3829;50.798;4.358;2023-02-22T12:28:24;13.20;99.90
7576;DHT22;3829;50.798;4.358;2023-02-22T12:33:38;13.40;99.90
7576;DHT22;3829;50.798;4.358;2023-02-22T12:36:07;13.50;99.90
7576;DHT22;3829;50.798;4.358;2023-02-22T12:38:41;13.40;99.90
7576;DHT22;3829;50.798;4.358;2023-02-22T12:44:03;13.40;99.90
7576;DHT22;3829;50.798;4.358;2023-02-22T12:46:49;12.90;99.90
7576;DHT22;3829;50.798;4.358;2023-02-22T12:51:51;13.00;99.90
7576;DHT22;3829;50.798;4.358;2023-02-22T12:54:41;13.00;99.90
7576;DHT22;3829;50.798;4.358;2023-02-22T13:00:24;13.20;99.90
7576;DHT22;3829;50.798;4.358;2023-02-22T13:03:03;13.20;99.90
7576;DHT22;3829;50.798;4.358;2023-02-22T13:05:37;13.20;99.90
7576;DHT22;3829;50.798;4.358;2023-02-22T13:08:27;13.00;99.90
7576;DHT22;3829;50.798;4.358;2023-02-22T13:11:02;12.90;99.90
7576;DHT22;3829;50.798;4.358;2023-02-22T13:13:42;13.10;99.90
7576;DHT22;3829;50.798;4.358;2023-02-22T13:16:23;13.10;99.90
7576;DHT22;3829;50.798;4.358;2023-02-22T13:19:38;13.10;99.90
7576;DHT22;3829;50.798;4.358;2023-02-22T13:25:01;12.50;99.90
7576;DHT22;3829;50.798;4.358;2023-02-22T13:30:37;12.40;99.90
7576;DHT22;3829;50.798;4.358;2023-02-22T13:33:21;12.30;99.90
7576;DHT22;3829;50.798;4.358;2023-02-22T13:39:21;12.00;99.90
7576;DHT22;3829;50.798;4.358;2023-02-22T13:42:22;11.90;99.90
7576;DHT22;3829;50.798;4.358;2023-02-22T13:47:59;11.90;99.90
7576;DHT22;3829;50.798;4.358;2023-02-22T13:50:56;11.80;99.90
7576;DHT22;3829;50.798;4.358;2023-02-22T13:53:27;11.70;99.90
7576;DHT22;3829;50.798;4.358;2023-02-22T13:55:57;11.80;99.90
7576;DHT22;3829;50.798;4.358;2023-02-22T13:58:23;11.90;99.90
7576;DHT22;3829;50.798;4.358;2023-02-22T14:00:55;11.90;99.90
7576;DHT22;3829;50.798;4.358;2023-02-22T14:05:52;12.00;99.90
7576;DHT22;3829;50.798;4.358;2023-02-22T14:10:53;12.10;99.90
7576;DHT22;3829;50.798;4.358;2023-02-22T14:13:24;12.10;99.90
7576;DHT22;3829;50.798;4.358;2023-02-22T14:18:23;12.00;99.90
7576;DHT22;3829;50.798;4.358;2023-02-22T14:26:32;11.90;99.90
7576;DHT22;3829;50.798;4.358;2023-02-22T14:32:00;11.70;99.90
7576;DHT22;3829;50.798;4.358;2023-02-22T14:37:32;11.40;99.90
7576;DHT22;3829;50.798;4.358;2023-02-22T14:40:35;11.20;99.90
7576;DHT22;3829;50.798;4.358;2023-02-22T14:45:38;11.20;99.90
7576;DHT22;3829;50.798;4.358;2023-02-22T14:51:03;11.20;99.90
7576;DHT22;3829;50.798;4.358;2023-02-22T14:53:43;11.10;99.90
7576;DHT22;3829;50.798;4.358;2023-02-22T14:59:01;11.10;99.90
7576;DHT22;3829;50.798;4.358;2023-02-22T15:01:36;11.10;99.90
7576;DHT22;3829;50.798;4.358;2023-02-22T15:06:47;11.30;99.90
7576;DHT22;3829;50.798;4.358;2023-02-22T15:09:17;11.00;99.90
7576;DHT22;3829;50.798;4.358;2023-02-22T15:11:56;11.00;99.90
7576;DHT22;3829;50.798;4.358;2023-02-22T15:14:37;10.80;99.90
7576;DHT22;3829;50.798;4.358;2023-02-22T15:17:29;10.80;99.90
7576;DHT22;3829;50.798;4.358;2023-02-22T15:19:55;10.70;99.90
7576;DHT22;3829;50.798;4.358;2023-02-22T15:22:24;10.60;99.90
7576;DHT22;3829;50.798;4.358;2023-02-22T15:24:59;10.70;99.90
7576;DHT22;3829;50.798;4.358;2023-02-22T15:27:24;10.60;99.90
7576;DHT22;3829;50.798;4.358;2023-02-22T15:29:57;10.70;99.90
7576;DHT22;3829;50.798;4.358;2023-02-22T15:32:31;10.60;99.90
7576;DHT22;3829;50.798;4.358;2023-02-22T15:35:29;10.60;99.90
7576;DHT22;3829;50.798;4.358;2023-02-22T15:38:02;10.40;99.90
7576;DHT22;3829;50.798;4.358;2023-02-22T15:40:28;10.20;99.90
7576;DHT22;3829;50.798;4.358;2023-02-22T15:43:03;10.20;99.90
7576;DHT22;3829;50.798;4.358;2023-02-22T15:45:29;10.20;99.90
7576;DHT22;3829;50.798;4.358;2023-02-22T15:47:57;10.30;99.90
7576;DHT22;3829;50.798;4.358;2023-02-22T15:50:27;10.20;99.90
7576;DHT22;3829;50.798;4.358;2023-02-22T15:55:41;10.30;99.90
7576;DHT22;3829;50.798;4.358;2023-02-22T15:58:20;10.30;99.90
7576;DHT22;3829;50.798;4.358;2023-02-22T16:01:00;10.20;99.90
7576;DHT22;3829;50.798;4.358;2023-02-22T16:03:33;10.10;99.90
7576;DHT22;3829;50.798;4.358;2023-02-22T16:06:29;10.20;99.90
7576;DHT22;3829;50.798;4.358;2023-02-22T16:08:57;10.20;99.90
7576;DHT22;3829;50.798;4.358;2023-02-22T16:11:32;10.10;99.90
7576;DHT22;3829;50.798;4.358;2023-02-22T16:14:01;10.00;99.90
7576;DHT22;3829;50.798;4.358;2023-02-22T16:16:36;9.90;99.90
7576;DHT22;3829;50.798;4.358;2023-02-22T16:19:31;9.90;99.90
7576;DHT22;3829;50.798;4.358;2023-02-22T16:21:59;9.90;99.90
7576;DHT22;3829;50.798;4.358;2023-02-22T16:24:32;10.00;99.90
7576;DHT22;3829;50.798;4.358;2023-02-22T16:29:43;10.00;99.90
7576;DHT22;3829;50.798;4.358;2023-02-22T16:32:10;10.00;99.90
7576;DHT22;3829;50.798;4.358;2023-02-22T16:34:36;10.00;99.90
7576;DHT22;3829;50.798;4.358;2023-02-22T16:37:01;10.00;99.90
7576;DHT22;3829;50.798;4.358;2023-02-22T16:39:31;10.00;99.90
7576;DHT22;3829;50.798;4.358;2023-02-22T16:42:03;10.00;99.90
7576;DHT22;3829;50.798;4.358;2023-02-22T16:44:29;9.90;99.90
7576;DHT22;3829;50.798;4.358;2023-02-22T16:46:57;9.90;99.90
7576;DHT22;3829;50.798;4.358;2023-02-22T16:49:23;9.90;99.90
7576;DHT22;3829;50.798;4.358;2023-02-22T16:51:59;10.00;99.90
7576;DHT22;3829;50.798;4.358;2023-02-22T16:54:32;10.00;99.90
7576;DHT22;3829;50.798;4.358;2023-02-22T16:57:00;10.00;99.90
7576;DHT22;3829;50.798;4.358;2023-02-22T16:59:30;10.00;99.90
7576;DHT22;3829;50.798;4.358;2023-02-22T17:01:57;10.00;99.90
7576;DHT22;3829;50.798;4.358;2023-02-22T17:04:24;10.00;99.90
7576;DHT22;3829;50.798;4.358;2023-02-22T17:06:51;10.00;99.90
7576;DHT22;3829;50.798;4.358;2023-02-22T17:09:17;10.10;99.90
7576;DHT22;3829;50.798;4.358;2023-02-22T17:11:48;10.10;99.90
7576;DHT22;3829;50.798;4.358;2023-02-22T17:14:20;10.00;99.90
7576;DHT22;3829;50.798;4.358;2023-02-22T17:16:48;10.10;99.90
7576;DHT22;3829;50.798;4.358;2023-02-22T17:19:16;10.10;99.90
7576;DHT22;3829;50.798;4.358;2023-02-22T17:21:43;10.10;99.90
7576;DHT22;3829;50.798;4.358;2023-02-22T17:24:13;10.10;99.90
7576;DHT22;3829;50.798;4.358;2023-02-22T17:26:39;10.00;99.90
7576;DHT22;3829;50.798;4.358;2023-02-22T17:29:05;10.00;99.90
7576;DHT22;3829;50.798;4.358;2023-02-22T17:31:31;10.00;99.90
7576;DHT22;3829;50.798;4.358;2023-02-22T17:34:02;10.00;99.90
7576;DHT22;3829;50.798;4.358;2023-02-22T17:36:28;9.90;99.90
7576;DHT22;3829;50.798;4.358;2023-02-22T17:38:54;10.00;99.90
7576;DHT22;3829;50.798;4.358;2023-02-22T17:41:20;10.00;99.90
7576;DHT22;3829;50.798;4.358;2023-02-22T17:43:45;10.00;99.90
7576;DHT22;3829;50.798;4.358;2023-02-22T17:46:11;9.90;99.90
7576;DHT22;3829;50.798;4.358;2023-02-22T17:48:37;10.00;99.90
7576;DHT22;3829;50.798;4.358;2023-02-22T17:51:06;10.00;99.90
7576;DHT22;3829;50.798;4.358;2023-02-22T17:53:32;10.10;99.90
7576;DHT22;3829;50.798;4.358;2023-02-22T17:55:58;10.10;99.90
7576;DHT22;3829;50.798;4.358;2023-02-22T17:58:23;10.00;99.90
7576;DHT22;3829;50.798;4.358;2023-02-22T18:00:53;9.70;99.90
7576;DHT22;3829;50.798;4.358;2023-02-22T18:03:23;9.80;99.90
7576;DHT22;3829;50.798;4.358;2023-02-22T18:05:51;9.80;99.90
7576;DHT22;3829;50.798;4.358;2023-02-22T18:08:18;9.90;99.90
7576;DHT22;3829;50.798;4.358;2023-02-22T18:10:45;10.00;99.90
7576;DHT22;3829;50.798;4.358;2023-02-22T18:13:15;10.00;99.90
7576;DHT22;3829;50.798;4.358;2023-02-22T18:15:42;10.00;99.90
7576;DHT22;3829;50.798;4.358;2023-02-22T18:18:08;9.90;99.90
7576;DHT22;3829;50.798;4.358;2023-02-22T18:20:34;9.90;99.90
7576;DHT22;3829;50.798;4.358;2023-02-22T18:23:06;9.80;99.90
7576;DHT22;3829;50.798;4.358;2023-02-22T18:25:34;9.80;99.90
7576;DHT22;3829;50.798;4.358;2023-02-22T18:28:02;9.80;99.90
7576;DHT22;3829;50.798;4.358;2023-02-22T18:30:27;9.70;99.90
7576;DHT22;3829;50.798;4.358;2023-02-22T18:32:53;9.80;99.90
7576;DHT22;3829;50.798;4.358;2023-02-22T18:35:19;9.90;99.90
7576;DHT22;3829;50.798;4.358;2023-02-22T18:37:45;9.80;99.90
7576;DHT22;3829;50.798;4.358;2023-02-22T18:40:11;9.70;99.90
7576;DHT22;3829;50.798;4.358;2023-02-22T18:42:38;9.80;99.90
7576;DHT22;3829;50.798;4.358;2023-02-22T18:45:05;9.90;99.90
7576;DHT22;3829;50.798;4.358;2023-02-22T18:47:37;9.90;99.90
7576;DHT22;3829;50.798;4.358;2023-02-22T18:50:03;9.90;99.90
7576;DHT22;3829;50.798;4.358;2023-02-22T18:52:28;10.00;99.90